createdAt,value
2022-10-11T06:20:55.686Z,7.40
2022-10-11T06:23:24.069Z,7.30
2022-10-11T06:25:58.066Z,7.40
2022-10-11T06:28:27.335Z,7.40
2022-10-11T06:30:55.734Z,7.50
2022-10-11T06:33:24.273Z,7.50
2022-10-11T06:36:00.381Z,7.60
2022-10-11T06:38:28.891Z,7.70
2022-10-11T06:40:57.117Z,7.70
2022-10-11T06:43:25.502Z,7.80
2022-10-11T06:45:53.734Z,7.80
2022-10-11T06:48:21.672Z,7.90
2022-10-11T06:50:59.484Z,7.90
2022-10-11T06:53:29.806Z,8.00
2022-10-11T06:56:04.311Z,8.00
2022-10-11T06:58:33.514Z,8.10
2022-10-11T07:01:02.848Z,8.10
2022-10-11T07:03:31.750Z,8.10
2022-10-11T07:06:02.931Z,8.20
2022-10-11T07:08:33.191Z,8.20
2022-10-11T07:11:03.332Z,8.20
2022-10-11T07:13:31.819Z,8.30
2022-10-11T07:16:02.751Z,8.40
2022-10-11T07:18:31.601Z,8.40
2022-10-11T07:21:00.275Z,8.50
2022-10-11T07:23:28.572Z,8.50
2022-10-11T07:25:58.122Z,8.50
2022-10-11T07:28:26.926Z,8.60
2022-10-11T07:30:55.238Z,8.70
2022-10-11T07:33:23.424Z,8.80
2022-10-11T07:35:51.800Z,8.80
2022-10-11T07:38:20.155Z,8.90
2022-10-11T07:40:48.617Z,9.00
2022-10-11T07:43:18.362Z,9.10
2022-10-11T07:45:48.737Z,9.20
2022-10-11T07:48:17.022Z,9.30
2022-10-11T07:50:45.129Z,9.40
2022-10-11T07:53:13.490Z,9.50
2022-10-11T07:55:42.516Z,9.60
2022-10-11T07:58:12.244Z,9.70
2022-10-11T08:00:42.760Z,9.80
2022-10-11T08:03:11.570Z,9.90
2022-10-11T08:05:39.835Z,10.00
2022-10-11T08:08:07.885Z,10.20
2022-10-11T08:10:39.265Z,10.30
2022-10-11T08:13:07.789Z,10.50
2022-10-11T08:15:36.190Z,10.70
2022-10-11T08:18:06.065Z,10.90
2022-10-11T08:20:34.619Z,11.10
2022-10-11T08:23:02.685Z,11.30
2022-10-11T08:25:30.743Z,11.50
2022-10-11T08:27:58.825Z,11.70
2022-10-11T08:30:26.798Z,11.90
2022-10-11T08:32:55.019Z,12.10
2022-10-11T08:35:24.327Z,12.30
2022-10-11T08:37:52.364Z,12.40
2022-10-11T08:40:23.191Z,12.60
2022-10-11T08:42:58.471Z,12.80
2022-10-11T08:45:33.098Z,13.00
2022-10-11T08:48:09.821Z,13.30
2022-10-11T08:50:40.121Z,13.50
2022-10-11T08:53:20.501Z,13.80
2022-10-11T08:55:52.335Z,14.00
2022-10-11T08:58:24.330Z,14.30
2022-10-11T09:00:55.660Z,14.50
2022-10-11T09:03:31.381Z,14.70
2022-10-11T09:06:13.397Z,14.80
2022-10-11T09:08:56.552Z,15.10
2022-10-11T09:11:34.451Z,15.30
2022-10-11T09:14:19.332Z,15.60
2022-10-11T09:17:00.910Z,15.70
2022-10-11T09:19:52.928Z,15.90
2022-10-11T09:22:33.854Z,16.10
2022-10-11T09:25:15.420Z,16.30
2022-10-11T09:28:02.403Z,16.60
2022-10-11T09:30:31.561Z,16.90
2022-10-11T09:33:10.258Z,17.20
2022-10-11T09:35:42.113Z,17.50
2022-10-11T09:38:19.579Z,17.50
2022-10-11T09:41:00.304Z,17.60
2022-10-11T09:43:28.594Z,17.80
2022-10-11T09:45:56.730Z,18.10
2022-10-11T09:48:28.610Z,18.30
2022-10-11T09:51:04.321Z,18.60
2022-10-11T09:53:56.398Z,18.70
2022-10-11T09:56:26.511Z,18.90
2022-10-11T09:59:28.580Z,19.20
2022-10-11T10:02:19.826Z,19.40
2022-10-11T10:05:02.730Z,19.60
2022-10-11T10:07:32.600Z,19.70
2022-10-11T10:10:31.135Z,19.80
2022-10-11T10:13:01.819Z,20.00
2022-10-11T10:15:32.463Z,20.20
2022-10-11T10:18:01.140Z,20.10
2022-10-11T10:20:31.956Z,20.30
2022-10-11T10:23:02.457Z,20.60
2022-10-11T10:25:43.106Z,21.10
2022-10-11T10:28:21.537Z,21.60
2022-10-11T10:30:55.383Z,22.10
2022-10-11T10:33:25.830Z,22.50
2022-10-11T10:35:57.769Z,22.70
2022-10-11T10:38:29.542Z,22.80
2022-10-11T10:41:02.663Z,22.80
2022-10-11T10:43:34.484Z,22.40
2022-10-11T10:46:32.227Z,22.50
2022-10-11T10:52:12.546Z,22.90
2022-10-11T10:54:50.266Z,23.10
2022-10-11T10:57:24.761Z,23.40
2022-10-11T11:00:05.315Z,23.80
2022-10-11T11:02:42.202Z,24.00
2022-10-11T11:05:22.892Z,24.10
2022-10-11T11:07:56.203Z,24.10
2022-10-11T11:10:28.676Z,24.30
2022-10-11T11:13:09.357Z,24.00
2022-10-11T11:15:44.983Z,23.20
2022-10-11T11:18:29.273Z,23.20
2022-10-11T11:21:16.798Z,23.40
2022-10-11T11:23:54.995Z,23.70
2022-10-11T11:26:32.737Z,24.00
2022-10-11T11:29:12.539Z,24.40
2022-10-11T11:31:53.669Z,24.90
2022-10-11T11:34:25.449Z,25.10
2022-10-11T11:36:59.048Z,25.40
2022-10-11T11:39:34.080Z,25.30
2022-10-11T11:42:09.005Z,25.30
2022-10-11T11:44:41.901Z,25.40
2022-10-11T11:47:18.253Z,25.50
2022-10-11T11:49:50.196Z,25.50
2022-10-11T11:52:26.708Z,25.90
2022-10-11T11:55:04.226Z,26.10
2022-10-11T11:57:46.066Z,25.90
2022-10-11T12:00:20.298Z,25.90
2022-10-11T12:02:53.190Z,25.90
2022-10-11T12:05:24.702Z,26.10
2022-10-11T12:07:59.862Z,26.30
2022-10-11T12:10:36.380Z,26.60
2022-10-11T12:13:18.184Z,26.80
2022-10-11T12:16:10.954Z,27.00
2022-10-11T12:18:51.431Z,27.30
2022-10-11T12:21:28.507Z,27.30
2022-10-11T12:23:58.727Z,27.30
2022-10-11T12:26:40.688Z,27.60
2022-10-11T12:29:44.230Z,27.70
2022-10-11T12:32:53.657Z,27.00
2022-10-11T12:36:05.595Z,26.10
2022-10-11T12:38:39.850Z,25.70
2022-10-11T12:41:50.335Z,25.40
2022-10-11T12:44:24.912Z,25.80
2022-10-11T12:47:21.698Z,26.40
2022-10-11T12:50:06.214Z,27.10
2022-10-11T12:52:41.769Z,27.00
2022-10-11T12:55:31.204Z,27.70
2022-10-11T12:58:28.401Z,27.90
2022-10-11T13:01:25.005Z,28.00
2022-10-11T13:04:01.230Z,28.30
2022-10-11T13:06:34.991Z,28.40
2022-10-11T13:09:08.429Z,28.20
2022-10-11T13:11:40.348Z,27.30
2022-10-11T13:14:12.340Z,26.50
2022-10-11T13:16:50.459Z,26.30
2022-10-11T13:19:23.158Z,26.70
2022-10-11T13:21:55.739Z,27.20
2022-10-11T13:24:25.363Z,27.50
2022-10-11T13:26:56.659Z,28.10
2022-10-11T13:29:33.789Z,28.40
2022-10-11T13:32:04.942Z,28.40
2022-10-11T13:34:38.346Z,29.30
2022-10-11T13:37:08.967Z,29.70
2022-10-11T13:39:39.319Z,29.90
2022-10-11T13:42:10.112Z,30.30
2022-10-11T13:44:39.953Z,29.70
2022-10-11T13:47:10.539Z,30.10
2022-10-11T13:49:40.511Z,29.70
2022-10-11T13:52:23.194Z,29.60
2022-10-11T13:55:14.907Z,29.30
2022-10-11T13:57:46.203Z,29.40
2022-10-11T14:00:30.839Z,30.10
2022-10-11T14:03:03.973Z,29.90
2022-10-11T14:05:41.374Z,29.60
2022-10-11T14:08:26.028Z,29.60
2022-10-11T14:10:57.766Z,29.10
2022-10-11T14:13:32.701Z,29.40
2022-10-11T14:16:03.402Z,28.50
2022-10-11T14:18:46.992Z,27.30
2022-10-11T14:21:31.539Z,26.20
2022-10-11T14:24:02.973Z,25.10
2022-10-11T14:26:35.447Z,23.80
2022-10-11T14:29:06.621Z,23.20
2022-10-11T14:31:39.165Z,22.80
2022-10-11T14:34:10.632Z,22.60
2022-10-11T14:36:38.899Z,22.40
2022-10-11T14:39:14.808Z,22.30
2022-10-11T14:41:43.240Z,22.60
2022-10-11T14:44:11.513Z,22.90
2022-10-11T14:46:41.143Z,23.60
2022-10-11T14:49:15.811Z,25.20
2022-10-11T14:51:45.497Z,26.30
2022-10-11T14:54:16.737Z,26.70
2022-10-11T14:56:45.152Z,27.80
2022-10-11T14:59:15.733Z,28.40
2022-10-11T15:01:46.317Z,28.30
2022-10-11T15:04:14.857Z,28.10
2022-10-11T15:06:43.622Z,28.40
2022-10-11T15:09:12.130Z,27.90
2022-10-11T15:11:42.092Z,27.30
2022-10-11T15:14:10.704Z,27.30
2022-10-11T15:16:40.361Z,27.60
2022-10-11T15:19:12.171Z,27.80
2022-10-11T15:21:40.379Z,27.70
2022-10-11T15:24:08.827Z,27.50
2022-10-11T15:26:37.337Z,27.20
2022-10-11T15:29:09.582Z,26.00
2022-10-11T15:31:38.137Z,25.40
2022-10-11T15:34:06.563Z,25.10
2022-10-11T15:36:34.735Z,24.20
2022-10-11T15:39:03.427Z,23.70
2022-10-11T15:41:31.904Z,22.70
2022-10-11T15:44:00.283Z,22.30
2022-10-11T15:46:29.953Z,21.50
2022-10-11T15:48:58.132Z,21.30
2022-10-11T15:51:26.269Z,20.90
2022-10-11T15:53:54.514Z,20.70
2022-10-11T15:56:22.896Z,20.50
2022-10-11T15:58:51.274Z,20.50
2022-10-11T16:01:21.432Z,20.50
2022-10-11T16:03:51.960Z,20.30
2022-10-11T16:06:21.040Z,20.30
2022-10-11T16:08:49.301Z,20.20
2022-10-11T16:11:17.767Z,20.00
2022-10-11T16:13:46.576Z,19.90
